Time;durP1;ratioP1;P1;durP2;ratioP2;P2;SDS_P1;SDS_P2;PMS_P1;PMS_P2;Temp;Humidity;BMP_temperature;BMP_pressure;BME280_temperature;BME280_humidity;BME280_pressure;Samples;Min_cycle;Max_cycle;Signal;HPM_P1;HPM_P2
2022/05/07 00:00:48;;;;;;;14.60;7.45;;;;;;;;;;5108400;28;20086;-53
2022/05/07 00:03:13;;;;;;;12.18;6.18;;;;;;;;;;5094197;28;20024;-49
2022/05/07 00:05:39;;;;;;;13.15;6.30;;;;;;;;;;5109567;28;20481;-54
2022/05/07 00:08:06;;;;;;;11.85;5.95;;;;;;;;;;5111436;28;20067;-53
2022/05/07 00:10:33;;;;;;;8.48;5.85;;;;;;;;;;5110886;28;20020;-55
2022/05/07 00:12:59;;;;;;;12.55;6.03;;;;;;;;;;5111480;28;20441;-52
2022/05/07 00:15:26;;;;;;;10.30;6.05;;;;;;;;;;5111245;28;20011;-55
2022/05/07 00:18:01;;;;;;;12.55;5.75;;;;;;;;;;5110541;28;20955;-54
2022/05/07 00:20:27;;;;;;;9.93;6.70;;;;;;;;;;5110849;28;20088;-53
2022/05/07 00:22:54;;;;;;;13.57;6.55;;;;;;;;;;5110977;28;20028;-54
2022/05/07 00:25:20;;;;;;;9.10;6.22;;;;;;;;;;5111023;28;20031;-52
2022/05/07 00:27:46;;;;;;;10.77;5.78;;;;;;;;;;5111179;28;20165;-54
2022/05/07 00:30:12;;;;;;;9.23;5.90;;;;;;;;;;5110712;28;20024;-55
2022/05/07 00:32:38;;;;;;;12.43;6.07;;;;;;;;;;5104568;28;20130;-54
2022/05/07 00:35:05;;;;;;;10.98;5.88;;;;;;;;;;5110878;28;20023;-54
2022/05/07 00:37:31;;;;;;;10.68;6.28;;;;;;;;;;5110555;28;20112;-53
2022/05/07 00:39:57;;;;;;;9.80;5.53;;;;;;;;;;5110683;28;20019;-55
2022/05/07 00:42:23;;;;;;;7.80;5.05;;;;;;;;;;5110524;28;20028;-55
2022/05/07 00:44:50;;;;;;;10.77;5.85;;;;;;;;;;5110742;28;20126;-54
2022/05/07 00:47:17;;;;;;;7.95;5.40;;;;;;;;;;5109549;28;20031;-54
2022/05/07 00:49:44;;;;;;;10.68;5.70;;;;;;;;;;5110864;28;20020;-53
2022/05/07 00:52:10;;;;;;;11.00;5.43;;;;;;;;;;5110109;28;20126;-54
2022/05/07 00:54:36;;;;;;;9.40;5.80;;;;;;;;;;5110488;28;20099;-52
2022/05/07 00:57:03;;;;;;;11.90;5.88;;;;;;;;;;5110309;28;20508;-52
2022/05/07 00:59:30;;;;;;;7.97;4.95;;;;;;;;;;5106789;28;20039;-53
2022/05/07 01:01:56;;;;;;;10.05;5.80;;;;;;;;;;5103385;28;20152;-53
2022/05/07 01:04:22;;;;;;;9.35;4.95;;;;;;;;;;5110861;28;20143;-54
2022/05/07 01:06:48;;;;;;;8.02;4.65;;;;;;;;;;5110641;28;20131;-53
2022/05/07 01:09:14;;;;;;;10.43;6.22;;;;;;;;;;5109927;28;20020;-53
2022/05/07 01:11:41;;;;;;;8.85;4.90;;;;;;;;;;5110961;28;20045;-51
2022/05/07 01:14:07;;;;;;;8.27;5.32;;;;;;;;;;5109430;28;20050;-53
2022/05/07 01:16:33;;;;;;;7.63;5.60;;;;;;;;;;5108728;28;20031;-53
2022/05/07 01:18:59;;;;;;;8.95;4.88;;;;;;;;;;5110255;28;20016;-53
2022/05/07 01:21:25;;;;;;;8.40;5.10;;;;;;;;;;5110190;28;20046;-53
2022/05/07 01:23:51;;;;;;;8.57;5.00;;;;;;;;;;5109788;28;20019;-51
2022/05/07 01:26:20;;;;;;;8.90;5.18;;;;;;;;;;5110371;28;20031;-53
2022/05/07 01:28:46;;;;;;;8.60;4.90;;;;;;;;;;5109592;28;20168;-53
2022/05/07 01:31:12;;;;;;;8.23;5.30;;;;;;;;;;5108356;28;20144;-55
2022/05/07 01:33:39;;;;;;;9.43;4.72;;;;;;;;;;5109650;28;20123;-53
2022/05/07 01:36:09;;;;;;;9.23;5.00;;;;;;;;;;5110631;28;20073;-51
2022/05/07 01:38:35;;;;;;;6.80;4.55;;;;;;;;;;5109702;28;20024;-51
2022/05/07 01:41:03;;;;;;;9.70;5.20;;;;;;;;;;5109964;28;20046;-54
2022/05/07 01:43:32;;;;;;;7.47;4.97;;;;;;;;;;5109632;28;20027;-54
2022/05/07 01:46:01;;;;;;;7.85;5.22;;;;;;;;;;5097291;28;20546;-52
2022/05/07 01:48:28;;;;;;;8.45;5.45;;;;;;;;;;5102462;28;20106;-54
2022/05/07 01:50:54;;;;;;;7.32;5.20;;;;;;;;;;5109768;28;20028;-53
2022/05/07 01:53:22;;;;;;;8.73;5.68;;;;;;;;;;5109186;28;20077;-52
2022/05/07 01:55:48;;;;;;;8.85;4.93;;;;;;;;;;5109475;28;20394;-52
2022/05/07 01:58:14;;;;;;;8.85;5.50;;;;;;;;;;5109181;28;20099;-52
2022/05/07 02:00:40;;;;;;;8.82;4.65;;;;;;;;;;5104018;28;20031;-54
2022/05/07 02:03:07;;;;;;;6.88;4.97;;;;;;;;;;5108413;28;20115;-55
2022/05/07 02:05:33;;;;;;;8.10;4.95;;;;;;;;;;5109055;28;20106;-53
2022/05/07 02:07:59;;;;;;;8.63;5.43;;;;;;;;;;5108628;28;20493;-54
2022/05/07 02:10:26;;;;;;;7.97;5.13;;;;;;;;;;5100383;28;20028;-53
2022/05/07 02:12:52;;;;;;;8.45;5.70;;;;;;;;;;5108496;28;20354;-54
2022/05/07 02:15:18;;;;;;;8.10;5.03;;;;;;;;;;5106836;28;20024;-55
2022/05/07 02:17:45;;;;;;;7.57;5.22;;;;;;;;;;5108961;28;20094;-53
2022/05/07 02:20:11;;;;;;;7.43;5.05;;;;;;;;;;5108825;28;20032;-52
2022/05/07 02:22:37;;;;;;;9.35;5.00;;;;;;;;;;5108695;28;20034;-53
2022/05/07 02:25:03;;;;;;;7.18;5.03;;;;;;;;;;5108682;28;20039;-54
2022/05/07 02:27:30;;;;;;;10.48;5.35;;;;;;;;;;5108526;28;20032;-54
2022/05/07 02:29:56;;;;;;;7.03;5.18;;;;;;;;;;5107794;28;20032;-52
2022/05/07 02:32:23;;;;;;;8.27;5.35;;;;;;;;;;5108749;28;20136;-53
2022/05/07 02:34:49;;;;;;;7.55;5.10;;;;;;;;;;5108938;28;20145;-55
2022/05/07 02:37:15;;;;;;;8.13;5.05;;;;;;;;;;5108225;28;20334;-53
2022/05/07 02:39:41;;;;;;;8.27;5.50;;;;;;;;;;5108646;28;20026;-52
2022/05/07 02:44:51;;;;;;;8.82;5.35;;;;;;;;;;5106521;28;20822;-52
2022/05/07 02:47:17;;;;;;;9.77;5.32;;;;;;;;;;5108649;27;20506;-50
2022/05/07 02:49:44;;;;;;;8.73;5.00;;;;;;;;;;5108267;28;20039;-54
2022/05/07 02:52:10;;;;;;;7.22;4.85;;;;;;;;;;5108203;28;20031;-52
2022/05/07 02:54:36;;;;;;;7.78;5.55;;;;;;;;;;5107666;28;20028;-54
2022/05/07 02:57:02;;;;;;;10.23;5.72;;;;;;;;;;5108534;28;20127;-55
2022/05/07 02:59:29;;;;;;;8.40;5.53;;;;;;;;;;5097593;28;20459;-54
2022/05/07 03:01:56;;;;;;;8.27;5.93;;;;;;;;;;5107715;28;20034;-55
2022/05/07 03:04:22;;;;;;;9.02;5.80;;;;;;;;;;5108506;28;20035;-54
2022/05/07 03:06:48;;;;;;;8.65;5.47;;;;;;;;;;5108411;28;20038;-53
2022/05/07 03:09:14;;;;;;;8.27;5.22;;;;;;;;;;5108410;28;20039;-55
2022/05/07 03:11:40;;;;;;;7.53;5.60;;;;;;;;;;5108027;28;20031;-50
2022/05/07 03:14:07;;;;;;;8.02;5.63;;;;;;;;;;5107915;28;20533;-54
2022/05/07 03:16:38;;;;;;;7.00;5.03;;;;;;;;;;5108002;28;20020;-54
2022/05/07 03:19:04;;;;;;;7.75;5.50;;;;;;;;;;5108488;28;20374;-54
2022/05/07 03:21:30;;;;;;;8.60;6.30;;;;;;;;;;5107947;28;20110;-54
2022/05/07 03:23:57;;;;;;;7.65;5.18;;;;;;;;;;5107642;28;20485;-53
2022/05/07 03:26:23;;;;;;;7.43;5.57;;;;;;;;;;5107998;28;20023;-52
2022/05/07 03:28:49;;;;;;;8.43;5.60;;;;;;;;;;5102063;28;20050;-55
2022/05/07 03:31:15;;;;;;;8.82;5.93;;;;;;;;;;5097951;28;20434;-52
2022/05/07 03:33:41;;;;;;;6.72;5.13;;;;;;;;;;5108440;28;20114;-51
2022/05/07 03:36:09;;;;;;;10.20;6.20;;;;;;;;;;5107650;28;20557;-52
2022/05/07 03:38:35;;;;;;;8.88;6.47;;;;;;;;;;5108235;28;20030;-54
2022/05/07 03:41:03;;;;;;;8.07;5.93;;;;;;;;;;5107999;28;20134;-54
2022/05/07 03:43:29;;;;;;;8.35;5.90;;;;;;;;;;5098077;28;20825;-54
2022/05/07 03:45:55;;;;;;;8.02;5.70;;;;;;;;;;5105322;28;20062;-52
2022/05/07 03:48:21;;;;;;;8.48;5.40;;;;;;;;;;5095342;28;20481;-54
2022/05/07 03:50:47;;;;;;;7.93;6.32;;;;;;;;;;5088079;28;20040;-51
2022/05/07 03:53:31;;;;;;;9.27;6.35;;;;;;;;;;5105053;28;20094;-51
2022/05/07 03:55:58;;;;;;;7.25;5.88;;;;;;;;;;5107711;28;20216;-53
2022/05/07 03:58:25;;;;;;;9.18;6.38;;;;;;;;;;5106452;28;20063;-52
2022/05/07 04:00:52;;;;;;;7.10;5.95;;;;;;;;;;5107499;28;20024;-50
2022/05/07 04:03:18;;;;;;;9.27;5.90;;;;;;;;;;5107391;28;20027;-51
2022/05/07 04:05:44;;;;;;;9.10;6.75;;;;;;;;;;5108438;28;20031;-53
2022/05/07 04:08:10;;;;;;;8.98;6.18;;;;;;;;;;5110742;28;20050;-49
2022/05/07 04:10:36;;;;;;;9.15;6.22;;;;;;;;;;5111236;28;20028;-55
2022/05/07 04:13:02;;;;;;;9.18;6.10;;;;;;;;;;5104835;28;20026;-54
2022/05/07 04:15:28;;;;;;;7.38;5.70;;;;;;;;;;5111445;28;20020;-55
2022/05/07 04:17:54;;;;;;;8.00;6.18;;;;;;;;;;5111199;28;20107;-54
2022/05/07 04:20:20;;;;;;;6.97;5.50;;;;;;;;;;5110609;28;20059;-50
2022/05/07 04:22:46;;;;;;;8.60;6.45;;;;;;;;;;5111380;28;20043;-51
2022/05/07 04:25:14;;;;;;;10.68;6.65;;;;;;;;;;5099606;28;20024;-53
2022/05/07 04:27:40;;;;;;;8.85;6.22;;;;;;;;;;5102719;28;20036;-51
2022/05/07 04:30:06;;;;;;;7.80;6.25;;;;;;;;;;5111238;28;20107;-52
2022/05/07 04:32:32;;;;;;;7.47;5.88;;;;;;;;;;5110807;28;20043;-53
2022/05/07 04:34:58;;;;;;;8.80;6.10;;;;;;;;;;5109882;28;20015;-53
2022/05/07 04:37:25;;;;;;;8.57;6.22;;;;;;;;;;5111059;28;20062;-52
2022/05/07 04:39:51;;;;;;;9.15;6.20;;;;;;;;;;5110568;28;20115;-54
2022/05/07 04:42:17;;;;;;;8.95;6.63;;;;;;;;;;5100767;28;20119;-50
2022/05/07 04:44:43;;;;;;;10.75;6.47;;;;;;;;;;5106734;28;20024;-51
2022/05/07 04:47:10;;;;;;;10.60;6.07;;;;;;;;;;5110573;28;20031;-53
2022/05/07 04:49:36;;;;;;;8.02;6.72;;;;;;;;;;5107024;28;20024;-55
2022/05/07 04:52:05;;;;;;;8.02;5.80;;;;;;;;;;5101405;28;20440;-55
2022/05/07 04:54:32;;;;;;;8.38;6.50;;;;;;;;;;5105749;28;20537;-53
2022/05/07 04:56:58;;;;;;;8.00;5.32;;;;;;;;;;5101092;28;20386;-53
2022/05/07 04:59:25;;;;;;;11.18;9.18;;;;;;;;;;5099346;28;20440;-52
2022/05/07 05:01:51;;;;;;;19.33;12.30;;;;;;;;;;5110744;28;20114;-57
2022/05/07 05:04:17;;;;;;;22.52;12.95;;;;;;;;;;5110574;28;20094;-54
2022/05/07 05:06:43;;;;;;;34.90;17.33;;;;;;;;;;5110577;28;20150;-52
2022/05/07 05:09:10;;;;;;;49.85;23.20;;;;;;;;;;5110005;28;20031;-54
2022/05/07 05:11:37;;;;;;;37.85;21.95;;;;;;;;;;5102000;28;20031;-53
2022/05/07 05:15:01;;;;;;;39.75;25.27;;;;;;;;;;5091807;28;20060;-52
2022/05/07 05:17:05;;;;;;;37.90;25.67;;;;;;;;;;5109829;28;20078;-55
2022/05/07 05:19:31;;;;;;;53.97;28.80;;;;;;;;;;5108783;28;20061;-54
2022/05/07 05:21:58;;;;;;;64.78;29.25;;;;;;;;;;5109854;28;20705;-53
2022/05/07 05:24:24;;;;;;;46.03;27.85;;;;;;;;;;5109894;28;20024;-54
2022/05/07 05:26:50;;;;;;;36.47;29.50;;;;;;;;;;5105729;28;20668;-53
2022/05/07 05:29:16;;;;;;;54.13;31.73;;;;;;;;;;5109873;28;20138;-52
2022/05/07 05:31:42;;;;;;;43.28;28.17;;;;;;;;;;5109297;27;20056;-49
2022/05/07 05:34:08;;;;;;;40.67;29.88;;;;;;;;;;5109768;28;20023;-54
2022/05/07 05:36:34;;;;;;;46.50;30.88;;;;;;;;;;5108635;28;20031;-53
2022/05/07 05:39:00;;;;;;;36.78;30.17;;;;;;;;;;5109372;28;20019;-53
2022/05/07 05:41:26;;;;;;;41.55;31.73;;;;;;;;;;5106280;28;20038;-52
2022/05/07 05:43:52;;;;;;;41.45;30.13;;;;;;;;;;5109559;28;20024;-54
2022/05/07 05:46:18;;;;;;;48.65;31.05;;;;;;;;;;5108549;28;20034;-52
2022/05/07 05:48:45;;;;;;;40.95;32.72;;;;;;;;;;5109642;28;20397;-50
2022/05/07 05:51:11;;;;;;;40.28;30.50;;;;;;;;;;5108633;28;20477;-52
2022/05/07 05:53:37;;;;;;;41.42;32.75;;;;;;;;;;5110020;28;20031;-51
2022/05/07 05:56:03;;;;;;;41.40;27.95;;;;;;;;;;5108109;28;20065;-54
2022/05/07 05:58:33;;;;;;;33.67;28.60;;;;;;;;;;5109275;27;20035;-53
2022/05/07 06:01:02;;;;;;;37.60;28.45;;;;;;;;;;5108791;28;20042;-54
2022/05/07 06:03:29;;;;;;;30.77;27.30;;;;;;;;;;5109338;28;20161;-52
2022/05/07 06:05:55;;;;;;;36.65;28.90;;;;;;;;;;5109219;28;20035;-54
2022/05/07 06:08:21;;;;;;;35.25;28.50;;;;;;;;;;5108583;28;20172;-54
2022/05/07 06:10:51;;;;;;;34.60;26.67;;;;;;;;;;5104030;28;20051;-51
2022/05/07 06:13:18;;;;;;;32.55;26.83;;;;;;;;;;5108962;28;20819;-50
2022/05/07 06:15:45;;;;;;;35.22;25.55;;;;;;;;;;5109095;28;20076;-54
2022/05/07 06:18:11;;;;;;;35.28;26.55;;;;;;;;;;5108361;28;20046;-53
2022/05/07 06:20:37;;;;;;;36.35;26.88;;;;;;;;;;5108427;28;20016;-55
2022/05/07 06:23:03;;;;;;;40.28;25.05;;;;;;;;;;5108535;28;20032;-50
2022/05/07 06:28:14;;;;;;;34.97;26.15;;;;;;;;;;5103796;28;20042;-52
2022/05/07 06:30:40;;;;;;;41.65;26.02;;;;;;;;;;5107793;28;20118;-55
2022/05/07 06:33:06;;;;;;;43.90;26.95;;;;;;;;;;5107795;28;20488;-54
2022/05/07 06:35:33;;;;;;;40.42;26.35;;;;;;;;;;5108989;28;20032;-49
2022/05/07 06:37:59;;;;;;;35.92;25.55;;;;;;;;;;5108173;28;20118;-52
2022/05/07 06:40:25;;;;;;;39.60;23.20;;;;;;;;;;5096336;28;20035;-53
2022/05/07 06:42:51;;;;;;;41.80;24.92;;;;;;;;;;5108205;28;20113;-51
2022/05/07 06:45:17;;;;;;;41.78;23.88;;;;;;;;;;5108480;28;20457;-52
2022/05/07 06:47:43;;;;;;;44.08;23.58;;;;;;;;;;5108915;28;20533;-51
2022/05/07 06:50:10;;;;;;;44.65;24.35;;;;;;;;;;5108812;28;20114;-62
2022/05/07 06:52:44;;;;;;;41.42;23.50;;;;;;;;;;5108347;28;20016;-53
2022/05/07 06:55:14;;;;;;;48.92;23.23;;;;;;;;;;5106376;28;20482;-54
2022/05/07 06:57:40;;;;;;;47.05;23.88;;;;;;;;;;5108223;28;20032;-54
2022/05/07 07:00:06;;;;;;;45.53;22.67;;;;;;;;;;5108229;28;20038;-53
2022/05/07 07:02:32;;;;;;;40.38;21.23;;;;;;;;;;5093480;28;20103;-50
2022/05/07 07:05:00;;;;;;;31.50;20.90;;;;;;;;;;5099624;28;20123;-52
2022/05/07 07:07:26;;;;;;;40.90;21.52;;;;;;;;;;5108113;28;20501;-53
2022/05/07 07:09:53;;;;;;;39.72;21.67;;;;;;;;;;5108467;28;20066;-55
2022/05/07 07:12:20;;;;;;;40.35;21.67;;;;;;;;;;5106961;28;20030;-55
2022/05/07 07:14:47;;;;;;;45.83;22.52;;;;;;;;;;5108185;28;20028;-55
2022/05/07 07:17:13;;;;;;;39.60;19.33;;;;;;;;;;5087793;28;20527;-54
2022/05/07 07:19:42;;;;;;;32.25;19.90;;;;;;;;;;5101895;28;20060;-52
2022/05/07 07:22:08;;;;;;;37.72;19.75;;;;;;;;;;5108181;28;20370;-53
2022/05/07 07:24:34;;;;;;;29.25;17.63;;;;;;;;;;5107216;28;20107;-52
2022/05/07 07:27:00;;;;;;;34.13;17.45;;;;;;;;;;5106762;28;20039;-54
2022/05/07 07:29:26;;;;;;;38.95;17.98;;;;;;;;;;5106026;28;20147;-53
2022/05/07 07:31:52;;;;;;;28.17;15.13;;;;;;;;;;5092903;28;20059;-52
2022/05/07 07:34:21;;;;;;;27.63;16.20;;;;;;;;;;5092372;28;20016;-55
2022/05/07 07:36:47;;;;;;;31.75;15.52;;;;;;;;;;5106658;28;20034;-55
2022/05/07 07:39:14;;;;;;;30.42;15.60;;;;;;;;;;5106177;28;20023;-55
2022/05/07 07:41:40;;;;;;;21.88;15.05;;;;;;;;;;5108033;28;20486;-53
2022/05/07 07:44:06;;;;;;;30.10;15.52;;;;;;;;;;5109159;28;20599;-54
2022/05/07 07:49:17;;;;;;;24.13;15.80;;;;;;;;;;5111259;28;20580;-53
2022/05/07 07:51:43;;;;;;;28.05;15.38;;;;;;;;;;5111809;28;20031;-54
2022/05/07 07:54:09;;;;;;;31.52;16.17;;;;;;;;;;5111805;28;20020;-53
2022/05/07 07:56:35;;;;;;;22.15;14.70;;;;;;;;;;5112083;28;20069;-50
2022/05/07 07:59:02;;;;;;;27.10;15.40;;;;;;;;;;5110822;28;20114;-54
2022/05/07 08:01:28;;;;;;;25.08;14.48;;;;;;;;;;5110219;28;20027;-53
2022/05/07 08:03:54;;;;;;;19.58;14.07;;;;;;;;;;5091165;28;20545;-55
2022/05/07 08:06:20;;;;;;;21.23;14.18;;;;;;;;;;5106186;28;20024;-49
2022/05/07 08:11:40;;;;;;;31.50;15.35;;;;;;;;;;5105522;28;20567;-51
2022/05/07 08:14:07;;;;;;;25.92;14.88;;;;;;;;;;5096697;27;20032;-55
2022/05/07 08:16:34;;;;;;;25.15;14.80;;;;;;;;;;5094406;28;20073;-54
2022/05/07 08:19:00;;;;;;;24.50;14.25;;;;;;;;;;5107173;28;20106;-52
2022/05/07 08:21:27;;;;;;;22.70;14.90;;;;;;;;;;5111008;28;20747;-52
2022/05/07 08:23:53;;;;;;;24.63;14.82;;;;;;;;;;5110626;28;20481;-54
2022/05/07 08:26:19;;;;;;;25.63;15.10;;;;;;;;;;5110843;28;20107;-50
2022/05/07 08:28:45;;;;;;;21.30;13.50;;;;;;;;;;5103583;28;20074;-52
2022/05/07 08:31:11;;;;;;;22.40;13.38;;;;;;;;;;5104181;28;20035;-53
2022/05/07 08:33:40;;;;;;;24.38;13.57;;;;;;;;;;5102448;28;20085;-55
2022/05/07 08:36:07;;;;;;;20.55;13.57;;;;;;;;;;5108595;28;20448;-52
2022/05/07 08:38:34;;;;;;;19.05;12.60;;;;;;;;;;5110988;28;20026;-54
2022/05/07 08:41:00;;;;;;;22.70;13.68;;;;;;;;;;5110209;28;20537;-54
2022/05/07 08:43:26;;;;;;;19.10;13.27;;;;;;;;;;5110846;28;20358;-50
2022/05/07 08:45:53;;;;;;;28.05;14.88;;;;;;;;;;5109682;28;20038;-54
2022/05/07 08:48:19;;;;;;;22.13;12.93;;;;;;;;;;5110205;28;20059;-54
2022/05/07 08:50:47;;;;;;;21.25;14.07;;;;;;;;;;5095023;27;20142;-54
2022/05/07 08:53:13;;;;;;;26.17;14.68;;;;;;;;;;5109212;28;20027;-54
2022/05/07 08:55:39;;;;;;;26.02;14.35;;;;;;;;;;5110685;27;20027;-53
2022/05/07 08:58:05;;;;;;;31.55;15.32;;;;;;;;;;5109423;28;20039;-53
2022/05/07 09:00:33;;;;;;;27.25;14.15;;;;;;;;;;5102346;28;20130;-52
2022/05/07 09:03:01;;;;;;;22.85;14.38;;;;;;;;;;5100908;28;20046;-52
2022/05/07 09:05:38;;;;;;;24.65;14.25;;;;;;;;;;5108486;28;20028;-55
2022/05/07 09:08:05;;;;;;;28.27;14.98;;;;;;;;;;5108581;28;20032;-52
2022/05/07 09:10:32;;;;;;;21.83;14.55;;;;;;;;;;5108388;28;20027;-53
2022/05/07 09:13:14;;;;;;;24.73;13.70;;;;;;;;;;5108249;28;20024;-55
2022/05/07 09:15:56;;;;;;;18.90;12.88;;;;;;;;;;5103008;28;20088;-53
2022/05/07 09:18:24;;;;;;;29.00;14.20;;;;;;;;;;5108438;28;20428;-54
2022/05/07 09:21:15;;;;;;;22.00;13.15;;;;;;;;;;5108590;28;20378;-55
2022/05/07 09:23:42;;;;;;;24.17;13.85;;;;;;;;;;5110004;28;20030;-53
2022/05/07 09:26:08;;;;;;;23.80;13.75;;;;;;;;;;5109255;28;20032;-54
2022/05/07 09:28:38;;;;;;;22.13;13.02;;;;;;;;;;5109785;28;20373;-51
2022/05/07 09:31:04;;;;;;;18.45;13.68;;;;;;;;;;5098013;28;20394;-55
2022/05/07 09:33:33;;;;;;;21.08;12.82;;;;;;;;;;5097667;28;20027;-52
2022/05/07 09:36:12;;;;;;;25.30;13.75;;;;;;;;;;5109391;27;20028;-55
2022/05/07 09:38:38;;;;;;;20.92;13.15;;;;;;;;;;5108681;28;20033;-55
2022/05/07 09:41:05;;;;;;;22.30;13.13;;;;;;;;;;5109403;28;20032;-53
2022/05/07 09:43:31;;;;;;;21.30;12.80;;;;;;;;;;5109305;28;20038;-53
2022/05/07 09:45:57;;;;;;;19.95;11.60;;;;;;;;;;5109151;28;20102;-55
2022/05/07 09:48:24;;;;;;;17.45;11.88;;;;;;;;;;5109460;28;20114;-55
2022/05/07 09:50:50;;;;;;;17.83;11.82;;;;;;;;;;5109499;28;20611;-52
2022/05/07 09:59:16;;;;;;;19.17;12.07;;;;;;;;;;5109288;28;20058;-55
2022/05/07 10:02:10;;;;;;;18.20;11.32;;;;;;;;;;5071173;28;20051;-56
2022/05/07 10:04:48;;;;;;;17.35;11.23;;;;;;;;;;5109033;28;20036;-55
2022/05/07 10:07:30;;;;;;;18.95;11.43;;;;;;;;;;5108915;27;20042;-50
2022/05/07 10:10:04;;;;;;;17.45;10.88;;;;;;;;;;5100093;28;20035;-53
2022/05/07 10:12:31;;;;;;;14.55;9.63;;;;;;;;;;5109144;28;20035;-54
2022/05/07 10:15:07;;;;;;;20.25;10.27;;;;;;;;;;5106668;28;20533;-53
2022/05/07 10:17:35;;;;;;;17.45;9.93;;;;;;;;;;5093132;28;20042;-53
2022/05/07 10:20:09;;;;;;;22.17;10.95;;;;;;;;;;5096094;28;20097;-50
2022/05/07 10:22:35;;;;;;;18.95;11.00;;;;;;;;;;5102278;28;20035;-52
2022/05/07 10:25:06;;;;;;;20.92;10.48;;;;;;;;;;5106978;28;20134;-54
2022/05/07 10:27:33;;;;;;;23.70;11.82;;;;;;;;;;5108634;28;20067;-50
2022/05/07 10:30:09;;;;;;;19.25;10.60;;;;;;;;;;5106139;28;20023;-58
2022/05/07 10:32:56;;;;;;;20.85;11.32;;;;;;;;;;5100326;28;20482;-58
2022/05/07 10:35:41;;;;;;;21.92;12.75;;;;;;;;;;5108699;28;20024;-58
2022/05/07 10:38:07;;;;;;;17.88;12.55;;;;;;;;;;5106791;28;20027;-56
2022/05/07 10:40:33;;;;;;;20.00;13.77;;;;;;;;;;5093236;28;20020;-56
2022/05/07 10:43:00;;;;;;;20.05;13.63;;;;;;;;;;5106428;28;20027;-53
2022/05/07 10:45:27;;;;;;;20.17;12.23;;;;;;;;;;5107622;28;20028;-55
2022/05/07 10:47:54;;;;;;;20.75;12.07;;;;;;;;;;5106928;28;20050;-54
2022/05/07 10:50:21;;;;;;;29.63;12.35;;;;;;;;;;5106646;28;20096;-54
2022/05/07 10:52:54;;;;;;;22.48;12.02;;;;;;;;;;5099350;28;20569;-52
2022/05/07 10:55:23;;;;;;;30.58;11.88;;;;;;;;;;5106398;28;20058;-54
2022/05/07 10:57:50;;;;;;;29.95;11.73;;;;;;;;;;5106458;28;20164;-55
2022/05/07 11:00:18;;;;;;;25.02;12.73;;;;;;;;;;5106825;28;20031;-55
2022/05/07 11:02:45;;;;;;;21.75;11.32;;;;;;;;;;5106528;28;20024;-54
2022/05/07 11:05:12;;;;;;;35.58;11.10;;;;;;;;;;5107108;28;20139;-55
2022/05/07 11:07:41;;;;;;;25.45;12.10;;;;;;;;;;5105104;28;20044;-52
2022/05/07 11:10:10;;;;;;;26.53;12.27;;;;;;;;;;5107319;28;20367;-55
2022/05/07 11:12:36;;;;;;;28.48;11.88;;;;;;;;;;5108161;28;20024;-53
2022/05/07 11:15:06;;;;;;;25.65;10.88;;;;;;;;;;5108177;28;20034;-53
2022/05/07 11:17:34;;;;;;;21.15;11.05;;;;;;;;;;5112036;28;20023;-58
2022/05/07 11:20:00;;;;;;;21.08;11.55;;;;;;;;;;5111918;28;20060;-57
2022/05/07 11:22:30;;;;;;;20.45;12.05;;;;;;;;;;5105756;28;20138;-52
2022/05/07 11:24:57;;;;;;;33.53;16.58;;;;;;;;;;5111723;28;20055;-54
2022/05/07 11:27:26;;;;;;;29.33;17.88;;;;;;;;;;5111651;28;20023;-54
2022/05/07 11:29:53;;;;;;;29.25;17.48;;;;;;;;;;5112415;28;20035;-49
2022/05/07 11:32:19;;;;;;;28.33;16.30;;;;;;;;;;5111229;28;20382;-52
2022/05/07 11:34:45;;;;;;;24.27;15.73;;;;;;;;;;5112120;28;20405;-49
2022/05/07 11:37:11;;;;;;;27.13;14.68;;;;;;;;;;5107784;28;20040;-53
2022/05/07 11:39:50;;;;;;;25.35;14.85;;;;;;;;;;5112002;28;20062;-53
2022/05/07 11:42:31;;;;;;;26.52;15.02;;;;;;;;;;5111484;28;20024;-51
2022/05/07 11:47:53;;;;;;;20.40;12.85;;;;;;;;;;5112118;28;20467;-52
2022/05/07 11:50:24;;;;;;;21.90;11.77;;;;;;;;;;5111784;28;20080;-55
2022/05/07 11:52:50;;;;;;;27.02;12.07;;;;;;;;;;5101627;28;20107;-52
2022/05/07 11:55:19;;;;;;;27.23;11.02;;;;;;;;;;5112041;28;20030;-52
2022/05/07 11:57:47;;;;;;;24.13;11.93;;;;;;;;;;5112048;28;20023;-55
2022/05/07 12:00:16;;;;;;;23.00;12.13;;;;;;;;;;5111736;28;20028;-53
2022/05/07 12:03:09;;;;;;;32.35;13.30;;;;;;;;;;5111917;28;20032;-51
2022/05/07 12:06:01;;;;;;;27.30;11.35;;;;;;;;;;5097542;28;20164;-52
2022/05/07 12:08:34;;;;;;;20.65;10.43;;;;;;;;;;5096399;28;20071;-52
2022/05/07 12:11:00;;;;;;;27.67;10.98;;;;;;;;;;5111740;28;20019;-54
2022/05/07 12:13:27;;;;;;;28.40;11.32;;;;;;;;;;5110501;28;20030;-55
2022/05/07 12:18:41;;;;;;;23.13;11.38;;;;;;;;;;5111896;28;20114;-52
2022/05/07 12:21:07;;;;;;;27.95;11.32;;;;;;;;;;5099950;28;20027;-52
2022/05/07 12:31:45;;;;;;;21.90;11.30;;;;;;;;;;5102778;28;20105;-53
2022/05/07 12:34:12;;;;;;;22.20;11.02;;;;;;;;;;5111005;28;20114;-54
2022/05/07 12:36:38;;;;;;;14.43;10.68;;;;;;;;;;5092947;28;20035;-53
2022/05/07 12:39:05;;;;;;;16.85;10.02;;;;;;;;;;5093725;28;20413;-54
2022/05/07 12:41:31;;;;;;;16.83;10.38;;;;;;;;;;5110867;28;20481;-51
2022/05/07 12:43:58;;;;;;;30.08;10.77;;;;;;;;;;5111063;28;20039;-51
2022/05/07 12:46:24;;;;;;;23.83;11.10;;;;;;;;;;5106208;28;20091;-52
2022/05/07 12:48:51;;;;;;;23.65;9.50;;;;;;;;;;5111172;28;20032;-52
2022/05/07 12:51:18;;;;;;;23.00;9.43;;;;;;;;;;5106261;28;20035;-55
2022/05/07 12:53:44;;;;;;;22.52;9.68;;;;;;;;;;5111087;28;20024;-53
2022/05/07 12:56:10;;;;;;;20.13;9.32;;;;;;;;;;5111194;28;20020;-54
2022/05/07 12:58:36;;;;;;;20.08;9.73;;;;;;;;;;5111004;28;20087;-54
2022/05/07 13:01:02;;;;;;;19.10;9.00;;;;;;;;;;5109732;28;20389;-54
2022/05/07 13:03:29;;;;;;;21.45;9.95;;;;;;;;;;5110507;28;20023;-54
2022/05/07 13:05:55;;;;;;;21.52;9.00;;;;;;;;;;5109894;28;20705;-55
2022/05/07 13:08:21;;;;;;;21.00;8.65;;;;;;;;;;5110752;28;21342;-52
2022/05/07 13:10:47;;;;;;;14.25;8.60;;;;;;;;;;5111173;28;20106;-53
2022/05/07 13:13:13;;;;;;;14.07;7.90;;;;;;;;;;5110484;28;20030;-51
2022/05/07 13:15:39;;;;;;;19.23;8.75;;;;;;;;;;5110434;28;20062;-54
2022/05/07 13:18:05;;;;;;;16.65;8.10;;;;;;;;;;5110728;28;20031;-54
2022/05/07 13:20:31;;;;;;;19.00;8.57;;;;;;;;;;5110035;28;20084;-55
2022/05/07 13:22:58;;;;;;;22.92;9.65;;;;;;;;;;5109876;28;20023;-54
2022/05/07 13:25:25;;;;;;;23.40;9.75;;;;;;;;;;5110567;28;20477;-54
2022/05/07 13:27:51;;;;;;;18.35;11.25;;;;;;;;;;5110496;28;20525;-54
2022/05/07 13:30:18;;;;;;;21.05;11.18;;;;;;;;;;5110522;28;20073;-55
2022/05/07 13:32:46;;;;;;;26.10;11.63;;;;;;;;;;5109365;28;20134;-56
2022/05/07 13:35:12;;;;;;;18.45;11.25;;;;;;;;;;5107839;28;20081;-54
2022/05/07 13:37:39;;;;;;;23.83;13.05;;;;;;;;;;5113677;27;20027;-53
2022/05/07 13:40:06;;;;;;;21.98;11.93;;;;;;;;;;5109328;28;20488;-53
2022/05/07 13:42:33;;;;;;;24.27;13.05;;;;;;;;;;5108674;28;20550;-52
2022/05/07 13:44:59;;;;;;;20.17;12.18;;;;;;;;;;5110203;28;20029;-52
2022/05/07 13:47:25;;;;;;;18.70;12.38;;;;;;;;;;5109486;28;20031;-53
2022/05/07 13:49:51;;;;;;;20.10;11.75;;;;;;;;;;5102588;28;20020;-53
2022/05/07 13:52:17;;;;;;;21.42;11.65;;;;;;;;;;5107029;28;20024;-55
2022/05/07 13:54:43;;;;;;;15.27;9.68;;;;;;;;;;5100063;28;20104;-52
2022/05/07 13:57:09;;;;;;;13.40;9.27;;;;;;;;;;5103880;28;20060;-54
2022/05/07 13:59:36;;;;;;;15.63;9.45;;;;;;;;;;5104212;28;20023;-55
2022/05/07 14:02:02;;;;;;;17.55;9.90;;;;;;;;;;5109388;28;20917;-55
2022/05/07 14:04:28;;;;;;;18.10;10.30;;;;;;;;;;5109939;28;20044;-54
2022/05/07 14:07:01;;;;;;;20.55;10.00;;;;;;;;;;5109388;28;20160;-54
2022/05/07 14:09:27;;;;;;;20.33;11.30;;;;;;;;;;5109268;28;20035;-55
2022/05/07 14:11:53;;;;;;;19.05;12.05;;;;;;;;;;5109756;28;20401;-54
2022/05/07 14:14:19;;;;;;;17.50;9.98;;;;;;;;;;5108719;28;20042;-55
2022/05/07 14:16:45;;;;;;;17.73;9.55;;;;;;;;;;5109103;28;20028;-55
2022/05/07 14:19:11;;;;;;;26.08;12.27;;;;;;;;;;5107914;28;20569;-54
2022/05/07 14:21:39;;;;;;;20.13;11.18;;;;;;;;;;5107050;28;20496;-53
2022/05/07 14:24:08;;;;;;;17.38;10.73;;;;;;;;;;5107887;28;20499;-55
2022/05/07 14:26:35;;;;;;;17.53;9.87;;;;;;;;;;5108508;28;20031;-54
2022/05/07 14:29:01;;;;;;;16.88;10.00;;;;;;;;;;5107719;28;20042;-56
2022/05/07 14:31:27;;;;;;;13.02;9.05;;;;;;;;;;5108328;28;20043;-54
2022/05/07 14:33:53;;;;;;;16.90;9.52;;;;;;;;;;5108476;28;20115;-54
2022/05/07 14:36:19;;;;;;;14.32;9.23;;;;;;;;;;5106714;28;20047;-52
2022/05/07 14:38:45;;;;;;;12.05;7.82;;;;;;;;;;5108816;28;20433;-53
2022/05/07 14:41:12;;;;;;;14.70;9.60;;;;;;;;;;5109062;28;20031;-56
2022/05/07 14:43:38;;;;;;;15.20;9.23;;;;;;;;;;5109163;28;20019;-54
2022/05/07 14:46:05;;;;;;;14.32;8.30;;;;;;;;;;5109585;28;20053;-54
2022/05/07 14:48:31;;;;;;;10.50;7.53;;;;;;;;;;5108500;28;20081;-53
2022/05/07 14:50:57;;;;;;;15.30;8.77;;;;;;;;;;5099301;28;20155;-55
2022/05/07 14:53:23;;;;;;;15.50;8.63;;;;;;;;;;5108688;28;20492;-53
2022/05/07 14:55:49;;;;;;;17.73;7.53;;;;;;;;;;5108647;28;20486;-53
2022/05/07 14:58:16;;;;;;;19.63;8.10;;;;;;;;;;5108411;28;20042;-54